Airfield :
LOGIN :

Register | Disclaimer

   EN    FR    IT 

 










Legend :    VFR   Marginal VFR   IFR   Intensive IFR   Very Intensive IFR
Visi :
Ceiling :
>= 8 km
>= 3000ft
5 to 8 km
1000 to 3000 ft
1500m to 5 km
500 to 1000 ft
800 to 1500m
200 to 500 ft
< 800m
< 200 ft
Symbols :   Thunderstorms  Fog  Heavy snow  Heavy precipitations  Wind > 20 kt
SIGMETs :     Misc.  Thunderstorms  Icing  Turbulence  Mountain Waves  Volcanic Ashes







- Airport Elevation : 295 ft
- IATA code : BWE


EDVE - Braunschweig

CURRENT METAR :
  • 270550Z 30011KT 280V340 9999 SCT018 13/08 Q1026

EXPIRED METARs :
  • 270520Z 30008KT 270V330 9999 SCT018 14/09 Q1026
  • 270450Z 30008KT 270V330 9999 BKN016 14/09 Q1026

TAF TAF EDVE
Valid from the 27 at 06:00 until the 27 at 15:00 UTC


270500Z 2706/2715 31010KT 9999 BKN020
TEMPO 2709/2715 32015G25KT
No reported NOTAMs for that airfield.



MET'MAP, your aeronautical weather chart ! - Copyright ORBIFLY December 2007 - Disclaimer

ORBIFLY MET'MAP TEAM :

Programming & Development : Alexandra Zaïnal
Concept & Development : Baudouin d'Aumeries
Co-Development & Prog : Marc-Olivier Méhu
Technical & hardware support : Manuel Goepfert

Contact : metmap@orbifly.com




SOURCES & CREDITS :

   NOAA